Time;durP1;ratioP1;P1;durP2;ratioP2;P2;SDS_P1;SDS_P2;PMS_P1;PMS_P2;Temp;Humidity;BMP_temperature;BMP_pressure;BME280_temperature;BME280_humidity;BME280_pressure;Samples;Min_cycle;Max_cycle;Signal;HPM_P1;HPM_P2
2022/09/10 00:01:04;;;;;;;1.02;0.62;;;17.00;91.20;;;;;;959519;145;27401;-76
2022/09/10 00:03:30;;;;;;;0.55;0.55;;;17.00;91.20;;;;;;958348;145;27368;-75
2022/09/10 00:05:57;;;;;;;1.22;0.88;;;17.00;91.20;;;;;;957776;145;27445;-75
2022/09/10 00:08:24;;;;;;;0.72;0.72;;;17.10;91.20;;;;;;959348;145;27319;-75
2022/09/10 00:10:50;;;;;;;0.95;0.70;;;17.10;91.30;;;;;;958799;145;27294;-75
2022/09/10 00:13:17;;;;;;;0.70;0.70;;;17.10;91.30;;;;;;955921;145;27296;-75
2022/09/10 00:15:46;;;;;;;0.60;0.60;;;17.10;91.30;;;;;;960214;145;27484;-75
2022/09/10 00:18:13;;;;;;;1.02;0.68;;;17.10;91.30;;;;;;956753;145;27375;-75
2022/09/10 00:20:46;;;;;;;1.10;0.67;;;17.10;91.40;;;;;;956521;145;27392;-75
2022/09/10 00:23:12;;;;;;;0.72;0.60;;;17.10;91.40;;;;;;958723;145;27347;-75
2022/09/10 00:25:39;;;;;;;0.65;0.53;;;17.10;91.50;;;;;;958557;145;27377;-74
2022/09/10 00:28:07;;;;;;;0.88;0.55;;;17.10;91.50;;;;;;959416;145;27337;-75
2022/09/10 00:30:32;;;;;;;1.35;0.62;;;17.10;91.60;;;;;;959184;145;27354;-75
2022/09/10 00:32:59;;;;;;;3.20;1.67;;;17.10;91.60;;;;;;959088;145;27347;-76
2022/09/10 00:35:25;;;;;;;1.17;0.90;;;17.10;91.70;;;;;;961634;145;27290;-75
2022/09/10 00:37:51;;;;;;;1.80;0.70;;;17.10;91.70;;;;;;959033;145;27361;-76
2022/09/10 00:40:18;;;;;;;1.05;0.50;;;17.10;91.70;;;;;;958948;145;27443;-75
2022/09/10 00:42:45;;;;;;;1.03;0.70;;;17.10;91.80;;;;;;949337;147;27297;-75
2022/09/10 00:45:17;;;;;;;0.98;0.70;;;17.10;91.80;;;;;;944292;148;27348;-75
2022/09/10 00:47:46;;;;;;;0.95;0.60;;;17.10;92.00;;;;;;945651;148;27307;-74
2022/09/10 00:50:28;;;;;;;1.98;0.70;;;17.10;92.00;;;;;;946157;150;27773;-76
2022/09/10 00:52:55;;;;;;;0.85;0.72;;;17.20;92.20;;;;;;944832;148;27352;-75
2022/09/10 00:55:22;;;;;;;0.50;0.50;;;17.10;92.10;;;;;;945304;150;28369;-75
2022/09/10 00:57:48;;;;;;;0.53;0.53;;;17.20;92.20;;;;;;946704;148;27377;-75
2022/09/10 01:00:15;;;;;;;1.72;0.50;;;17.20;92.30;;;;;;944852;148;27344;-75
2022/09/10 01:02:41;;;;;;;0.77;0.63;;;17.20;92.30;;;;;;945220;148;27410;-77
2022/09/10 01:05:08;;;;;;;0.62;0.50;;;17.20;92.40;;;;;;945382;150;27347;-76
2022/09/10 01:07:35;;;;;;;1.00;0.70;;;17.20;92.40;;;;;;944756;148;27806;-76
2022/09/10 01:10:05;;;;;;;0.45;0.45;;;17.20;92.30;;;;;;940396;150;27307;-75
2022/09/10 01:12:43;;;;;;;1.45;0.90;;;17.20;92.30;;;;;;936776;150;27835;-75
2022/09/10 01:15:21;;;;;;;2.95;0.90;;;17.20;92.40;;;;;;939347;151;27334;-75
2022/09/10 01:18:26;;;;;;;2.70;0.70;;;17.20;92.30;;;;;;931990;148;27408;-76
2022/09/10 01:20:51;;;;;;;1.20;0.85;;;17.10;92.40;;;;;;938552;148;27364;-76
2022/09/10 01:23:56;;;;;;;0.78;0.50;;;17.10;92.30;;;;;;940141;148;27522;-76
2022/09/10 01:26:24;;;;;;;2.45;0.93;;;17.10;92.50;;;;;;940256;148;27394;-76
2022/09/10 01:29:06;;;;;;;1.77;0.90;;;17.10;92.50;;;;;;937063;148;27403;-75
2022/09/10 01:31:41;;;;;;;1.00;0.78;;;17.10;92.80;;;;;;938704;151;27410;-75
2022/09/10 01:34:08;;;;;;;0.60;0.60;;;17.00;92.80;;;;;;938605;148;27746;-75
2022/09/10 01:36:34;;;;;;;0.78;0.78;;;17.00;93.00;;;;;;935641;151;27414;-76
2022/09/10 01:39:01;;;;;;;1.50;0.80;;;17.00;93.10;;;;;;935559;149;27471;-76
2022/09/10 01:41:27;;;;;;;1.57;1.20;;;17.00;93.30;;;;;;938761;148;27513;-76
2022/09/10 01:43:54;;;;;;;0.75;0.72;;;17.00;93.30;;;;;;936921;151;27392;-76
2022/09/10 01:46:33;;;;;;;1.15;0.60;;;17.00;93.40;;;;;;934268;149;27758;-75
2022/09/10 01:49:17;;;;;;;0.70;0.70;;;17.00;93.40;;;;;;934530;148;27293;-75
2022/09/10 01:52:02;;;;;;;1.40;0.95;;;17.00;93.40;;;;;;933942;148;27478;-75
2022/09/10 01:54:56;;;;;;;0.98;0.95;;;17.00;93.50;;;;;;932298;148;27395;-75
2022/09/10 01:57:29;;;;;;;2.80;1.00;;;17.00;93.60;;;;;;933417;148;27421;-76
2022/09/10 02:00:02;;;;;;;1.47;1.00;;;17.00;93.70;;;;;;934352;149;28415;-76
2022/09/10 02:02:43;;;;;;;1.20;1.10;;;17.00;94.00;;;;;;932726;148;27369;-76
2022/09/10 02:05:10;;;;;;;2.35;0.80;;;17.00;94.20;;;;;;932774;149;27337;-76
2022/09/10 02:07:36;;;;;;;1.57;1.20;;;17.00;94.40;;;;;;933674;148;27429;-75
2022/09/10 02:10:03;;;;;;;3.17;1.37;;;17.00;94.70;;;;;;932327;149;27362;-76
2022/09/10 02:12:30;;;;;;;1.60;1.50;;;17.00;94.80;;;;;;932430;148;27368;-75
2022/09/10 02:14:56;;;;;;;1.57;0.90;;;17.10;94.90;;;;;;933227;149;27451;-75
2022/09/10 02:17:23;;;;;;;1.10;1.00;;;17.10;95.00;;;;;;934910;148;27368;-76
2022/09/10 02:19:52;;;;;;;1.65;1.35;;;17.20;95.00;;;;;;930876;149;27805;-75
2022/09/10 02:22:16;;;;;;;4.53;0.98;;;17.20;95.00;;;;;;935147;148;27328;-76
2022/09/10 02:24:45;;;;;;;2.60;1.10;;;17.30;95.00;;;;;;932410;149;27847;-75
2022/09/10 02:27:09;;;;;;;0.98;0.90;;;17.30;94.80;;;;;;934349;149;27449;-76
2022/09/10 02:29:37;;;;;;;1.20;0.90;;;17.30;94.80;;;;;;934137;149;27398;-78
2022/09/10 02:32:03;;;;;;;1.10;1.00;;;17.40;94.80;;;;;;935073;148;27374;-78
2022/09/10 02:34:29;;;;;;;1.12;0.98;;;17.40;94.80;;;;;;936690;148;27435;-78
2022/09/10 02:36:56;;;;;;;2.05;1.10;;;17.40;94.70;;;;;;933870;149;27894;-79
2022/09/10 02:39:22;;;;;;;3.75;0.95;;;17.40;94.60;;;;;;934496;149;27388;-78
2022/09/10 02:41:49;;;;;;;1.75;1.30;;;17.40;94.50;;;;;;935412;148;27388;-76
2022/09/10 02:44:15;;;;;;;1.92;1.15;;;17.40;94.40;;;;;;935447;148;27333;-75
2022/09/10 02:46:43;;;;;;;1.22;1.10;;;17.50;94.40;;;;;;938243;148;27344;-74
2022/09/10 02:49:09;;;;;;;1.25;0.90;;;17.40;94.30;;;;;;938754;148;27396;-76
2022/09/10 02:51:38;;;;;;;3.72;1.20;;;17.40;94.20;;;;;;941917;148;27727;-75
2022/09/10 02:54:02;;;;;;;2.30;0.75;;;17.40;94.10;;;;;;941619;148;29360;-75
2022/09/10 02:56:28;;;;;;;2.42;1.27;;;17.40;94.10;;;;;;941175;148;27440;-76
2022/09/10 02:58:55;;;;;;;1.37;0.93;;;17.40;94.20;;;;;;939298;148;27335;-76
2022/09/10 03:01:21;;;;;;;2.15;1.10;;;17.30;94.20;;;;;;939132;148;27325;-76
2022/09/10 03:03:48;;;;;;;1.05;1.05;;;17.30;94.20;;;;;;940353;148;27354;-75
2022/09/10 03:06:15;;;;;;;1.13;1.00;;;17.20;94.20;;;;;;939964;148;27382;-75
2022/09/10 03:08:41;;;;;;;1.45;1.00;;;17.20;94.10;;;;;;941062;148;27371;-75
2022/09/10 03:11:08;;;;;;;1.20;1.10;;;17.10;94.20;;;;;;938999;148;27508;-75
2022/09/10 03:13:34;;;;;;;1.22;0.80;;;17.10;94.30;;;;;;939564;148;27411;-75
2022/09/10 03:16:04;;;;;;;1.23;1.10;;;17.00;94.40;;;;;;940401;148;27390;-77
2022/09/10 03:18:31;;;;;;;1.30;1.20;;;17.00;94.60;;;;;;941084;148;27477;-75
2022/09/10 03:20:57;;;;;;;1.02;1.00;;;16.90;94.70;;;;;;939219;148;27429;-75
2022/09/10 03:23:24;;;;;;;1.47;1.10;;;16.90;94.90;;;;;;934504;148;27375;-75
2022/09/10 03:25:50;;;;;;;0.88;0.82;;;16.90;95.00;;;;;;938762;148;27715;-76
2022/09/10 03:28:18;;;;;;;2.33;1.00;;;16.80;95.10;;;;;;940486;148;27835;-76
2022/09/10 03:30:43;;;;;;;0.98;0.93;;;16.80;95.10;;;;;;938099;148;27367;-75
2022/09/10 03:33:10;;;;;;;1.45;0.82;;;16.80;95.20;;;;;;938356;148;27388;-75
2022/09/10 03:35:37;;;;;;;1.90;1.10;;;16.80;95.30;;;;;;938045;148;27372;-75
2022/09/10 03:38:04;;;;;;;1.77;0.90;;;16.80;95.30;;;;;;939368;148;27389;-75
2022/09/10 03:40:30;;;;;;;1.17;1.07;;;16.80;95.30;;;;;;940099;148;27323;-75
2022/09/10 03:42:56;;;;;;;1.05;1.05;;;16.80;95.40;;;;;;939209;148;27457;-75
2022/09/10 03:45:23;;;;;;;0.80;0.80;;;16.70;95.40;;;;;;943967;148;27510;-75
2022/09/10 03:47:50;;;;;;;1.67;1.07;;;16.70;95.40;;;;;;944456;147;27359;-76
2022/09/10 03:50:16;;;;;;;1.17;1.05;;;16.70;95.40;;;;;;943761;147;27421;-75
2022/09/10 03:52:43;;;;;;;2.07;1.20;;;16.60;95.40;;;;;;943825;147;27339;-76
2022/09/10 03:55:09;;;;;;;3.60;1.45;;;16.60;95.40;;;;;;945242;147;27919;-77
2022/09/10 03:57:37;;;;;;;1.30;1.20;;;16.60;95.60;;;;;;944203;147;27389;-75
2022/09/10 04:00:02;;;;;;;1.50;1.20;;;16.50;95.90;;;;;;942764;147;27320;-75
2022/09/10 04:02:29;;;;;;;1.23;1.13;;;16.50;96.20;;;;;;944275;147;27894;-75
2022/09/10 04:04:56;;;;;;;1.75;1.55;;;16.50;96.40;;;;;;944976;147;27307;-76
2022/09/10 04:07:22;;;;;;;2.45;1.20;;;16.50;96.70;;;;;;946228;147;27353;-77
2022/09/10 04:09:49;;;;;;;1.22;1.12;;;16.50;96.90;;;;;;945317;147;27407;-75
2022/09/10 04:12:15;;;;;;;2.65;1.05;;;16.60;97.00;;;;;;946959;147;27358;-75
2022/09/10 04:14:44;;;;;;;1.20;0.90;;;16.60;97.10;;;;;;947877;147;27443;-76
2022/09/10 04:17:09;;;;;;;1.20;1.10;;;16.70;97.10;;;;;;945662;147;27346;-77
2022/09/10 04:19:36;;;;;;;1.55;0.90;;;16.70;97.10;;;;;;944012;147;27298;-76
2022/09/10 04:22:02;;;;;;;1.10;1.05;;;16.70;97.00;;;;;;943970;148;27862;-75
2022/09/10 04:24:28;;;;;;;1.55;1.02;;;16.70;97.00;;;;;;945257;147;27369;-76
2022/09/10 04:26:56;;;;;;;1.30;0.82;;;16.80;96.90;;;;;;945614;147;27300;-76
2022/09/10 04:29:22;;;;;;;1.13;1.13;;;16.80;96.80;;;;;;945273;147;27320;-75
2022/09/10 04:31:49;;;;;;;3.03;1.20;;;16.90;96.70;;;;;;945038;147;27356;-76
2022/09/10 04:34:15;;;;;;;2.10;0.90;;;16.90;96.50;;;;;;945836;147;27386;-77
2022/09/10 04:36:41;;;;;;;1.55;1.30;;;16.90;96.40;;;;;;944202;147;27350;-75
2022/09/10 04:39:08;;;;;;;0.93;0.90;;;16.90;96.30;;;;;;942679;147;27383;-76
2022/09/10 04:41:34;;;;;;;1.83;1.27;;;16.80;96.30;;;;;;945593;147;27397;-75
2022/09/10 04:44:01;;;;;;;1.60;1.22;;;16.80;96.80;;;;;;944349;147;27379;-75
2022/09/10 04:46:28;;;;;;;3.93;1.10;;;16.80;96.50;;;;;;941967;147;27717;-76
2022/09/10 04:48:54;;;;;;;1.47;1.20;;;16.80;96.60;;;;;;939079;148;27951;-75
2022/09/10 04:51:21;;;;;;;2.62;1.12;;;16.80;96.70;;;;;;940404;148;27296;-75
2022/09/10 04:53:47;;;;;;;1.83;1.10;;;16.80;96.80;;;;;;940801;148;27319;-75
2022/09/10 04:56:14;;;;;;;1.85;1.12;;;16.90;96.90;;;;;;941247;148;27831;-76
2022/09/10 04:58:41;;;;;;;2.73;1.37;;;16.80;96.90;;;;;;940489;148;27353;-77
2022/09/10 05:01:07;;;;;;;1.25;1.17;;;16.90;97.00;;;;;;940447;148;27473;-75
2022/09/10 05:03:34;;;;;;;1.15;1.15;;;16.90;97.10;;;;;;938008;148;27810;-75
2022/09/10 05:06:00;;;;;;;1.00;1.00;;;16.90;97.10;;;;;;939786;148;27431;-75
2022/09/10 05:08:27;;;;;;;1.10;1.10;;;17.00;97.20;;;;;;940489;148;27479;-75
2022/09/10 05:10:54;;;;;;;1.50;1.40;;;17.00;97.30;;;;;;940228;148;27418;-76
2022/09/10 05:13:20;;;;;;;2.27;1.45;;;17.00;97.30;;;;;;940809;148;27325;-77
2022/09/10 05:15:48;;;;;;;2.93;1.50;;;17.10;97.40;;;;;;940760;148;27399;-75
2022/09/10 05:18:15;;;;;;;1.30;1.30;;;17.10;97.50;;;;;;939057;148;27344;-75
2022/09/10 05:20:40;;;;;;;2.77;1.37;;;17.10;97.50;;;;;;937546;148;27484;-75
2022/09/10 05:23:06;;;;;;;1.17;1.12;;;17.20;97.60;;;;;;940255;148;27264;-75
2022/09/10 05:25:33;;;;;;;1.47;1.00;;;17.20;97.60;;;;;;940674;148;27378;-77
2022/09/10 05:28:00;;;;;;;1.87;1.40;;;17.30;97.60;;;;;;939234;148;27392;-75
2022/09/10 05:30:31;;;;;;;3.50;1.50;;;17.30;97.60;;;;;;939029;148;27780;-76
2022/09/10 05:32:53;;;;;;;1.65;1.55;;;17.30;97.60;;;;;;940586;148;27284;-76
2022/09/10 05:35:19;;;;;;;1.50;1.40;;;17.30;97.60;;;;;;937104;148;27277;-75
2022/09/10 05:37:46;;;;;;;2.00;1.32;;;17.40;97.60;;;;;;939297;148;27427;-76
2022/09/10 05:40:13;;;;;;;3.92;1.65;;;17.40;97.60;;;;;;938675;148;27438;-75
2022/09/10 05:42:39;;;;;;;1.50;1.25;;;17.40;97.60;;;;;;938956;148;27495;-76
2022/09/10 05:45:06;;;;;;;1.75;1.65;;;17.50;97.70;;;;;;939916;148;27280;-76
2022/09/10 05:47:33;;;;;;;3.27;1.40;;;17.50;97.70;;;;;;938152;148;27375;-76
2022/09/10 05:49:59;;;;;;;1.70;1.50;;;17.50;97.80;;;;;;932823;147;27314;-75
2022/09/10 05:52:26;;;;;;;1.47;1.35;;;17.60;97.90;;;;;;934689;149;27328;-76
2022/09/10 05:54:55;;;;;;;2.75;1.80;;;17.60;97.90;;;;;;932474;149;27380;-75
2022/09/10 05:57:19;;;;;;;2.45;1.70;;;17.60;97.90;;;;;;934501;149;27360;-76
2022/09/10 05:59:46;;;;;;;1.75;1.62;;;17.70;97.90;;;;;;933586;148;27365;-76
2022/09/10 06:02:18;;;;;;;3.30;1.98;;;17.70;97.90;;;;;;934249;149;27439;-76
2022/09/10 06:04:44;;;;;;;2.90;1.80;;;17.70;98.00;;;;;;932404;149;27855;-76
2022/09/10 06:07:11;;;;;;;3.42;1.70;;;17.80;98.00;;;;;;933253;149;27471;-76
2022/09/10 06:09:38;;;;;;;2.77;1.62;;;17.80;98.00;;;;;;935888;148;27313;-75
2022/09/10 06:12:07;;;;;;;1.57;1.40;;;17.80;98.00;;;;;;933474;148;27374;-75
2022/09/10 06:14:31;;;;;;;2.80;1.70;;;17.80;98.10;;;;;;933756;149;27304;-76
2022/09/10 06:16:57;;;;;;;2.47;1.87;;;17.90;98.20;;;;;;934035;149;27364;-76
2022/09/10 06:19:24;;;;;;;1.90;1.70;;;17.90;98.40;;;;;;934450;148;27348;-77
2022/09/10 06:21:53;;;;;;;1.67;1.57;;;17.90;98.50;;;;;;936187;148;27388;-75
2022/09/10 06:24:18;;;;;;;1.50;1.40;;;17.90;98.60;;;;;;933453;148;28730;-75
2022/09/10 06:26:44;;;;;;;1.85;1.75;;;18.00;98.80;;;;;;932746;148;27465;-75
2022/09/10 06:29:11;;;;;;;2.60;1.90;;;18.10;99.00;;;;;;932709;148;27423;-75
2022/09/10 06:31:37;;;;;;;1.90;1.70;;;18.10;99.10;;;;;;932998;149;27384;-75
2022/09/10 06:34:03;;;;;;;1.52;1.40;;;18.20;99.30;;;;;;933928;149;27381;-74
2022/09/10 06:36:32;;;;;;;1.72;1.60;;;18.30;99.30;;;;;;933775;149;27441;-75
2022/09/10 06:38:57;;;;;;;1.62;1.52;;;18.40;99.30;;;;;;935671;148;27302;-75
2022/09/10 06:41:23;;;;;;;1.30;1.30;;;18.50;99.20;;;;;;932770;148;27374;-75
2022/09/10 06:43:50;;;;;;;2.87;1.77;;;18.50;99.00;;;;;;934165;148;27365;-75
2022/09/10 06:46:16;;;;;;;1.67;1.57;;;18.60;98.80;;;;;;936087;148;27388;-75
2022/09/10 06:48:44;;;;;;;2.00;1.80;;;18.70;98.50;;;;;;937335;148;27440;-75
2022/09/10 06:51:11;;;;;;;1.35;1.30;;;18.70;97.90;;;;;;939138;148;27300;-75
2022/09/10 06:53:36;;;;;;;1.60;1.50;;;18.70;97.60;;;;;;940997;148;27461;-75
2022/09/10 06:56:04;;;;;;;2.87;1.72;;;18.70;97.50;;;;;;940029;148;27393;-75
2022/09/10 06:58:30;;;;;;;1.85;1.60;;;18.70;97.50;;;;;;940402;148;27343;-75
2022/09/10 07:00:56;;;;;;;1.55;1.45;;;18.70;97.50;;;;;;939974;148;27461;-75
2022/09/10 07:03:23;;;;;;;1.52;1.40;;;18.70;97.60;;;;;;941346;148;27458;-75
2022/09/10 07:05:52;;;;;;;1.50;1.40;;;18.70;97.90;;;;;;938745;148;27418;-75
2022/09/10 07:08:16;;;;;;;1.60;1.50;;;18.70;98.10;;;;;;938564;148;27440;-75
2022/09/10 07:10:43;;;;;;;1.50;0.98;;;18.70;98.10;;;;;;938784;148;27355;-75
2022/09/10 07:13:09;;;;;;;2.15;1.12;;;18.80;98.10;;;;;;940711;148;27363;-75
2022/09/10 07:15:35;;;;;;;1.42;1.07;;;18.70;98.00;;;;;;937199;148;27457;-75
2022/09/10 07:18:02;;;;;;;1.35;1.25;;;18.80;98.00;;;;;;938254;148;27349;-75
2022/09/10 07:20:29;;;;;;;1.45;1.00;;;18.80;98.00;;;;;;939782;148;27328;-75
2022/09/10 07:22:55;;;;;;;1.37;0.95;;;18.80;98.10;;;;;;940440;148;27422;-75
2022/09/10 07:25:22;;;;;;;1.90;1.10;;;18.80;98.30;;;;;;938295;148;27351;-75
2022/09/10 07:27:49;;;;;;;1.00;1.00;;;18.90;98.50;;;;;;941425;148;27521;-75
2022/09/10 07:30:15;;;;;;;1.35;1.22;;;18.90;98.60;;;;;;937128;148;27364;-75
2022/09/10 07:32:42;;;;;;;1.62;1.10;;;19.00;98.80;;;;;;939046;148;27351;-75
2022/09/10 07:35:08;;;;;;;2.52;1.40;;;19.00;98.90;;;;;;941803;148;27392;-76
2022/09/10 07:37:35;;;;;;;0.70;0.70;;;19.10;98.90;;;;;;939325;148;27458;-76
2022/09/10 07:40:03;;;;;;;1.20;0.82;;;19.20;98.60;;;;;;940568;148;27470;-75
2022/09/10 07:42:28;;;;;;;0.95;0.95;;;19.20;98.40;;;;;;939232;148;27325;-75
2022/09/10 07:44:55;;;;;;;1.80;0.80;;;19.30;98.50;;;;;;939799;148;27312;-75
2022/09/10 07:47:22;;;;;;;0.82;0.82;;;19.40;98.40;;;;;;938806;148;27605;-75
2022/09/10 07:49:48;;;;;;;1.20;1.10;;;19.50;98.40;;;;;;939286;148;27953;-76
2022/09/10 07:52:15;;;;;;;2.55;1.35;;;19.50;98.90;;;;;;940111;148;27472;-75
2022/09/10 07:54:41;;;;;;;1.62;0.75;;;19.60;99.10;;;;;;938854;148;27396;-75
2022/09/10 07:57:07;;;;;;;1.65;0.93;;;19.70;99.30;;;;;;939355;148;27339;-75
2022/09/10 07:59:34;;;;;;;0.90;0.90;;;19.90;99.10;;;;;;939924;148;27448;-75
2022/09/10 08:02:01;;;;;;;0.68;0.68;;;20.10;98.40;;;;;;938450;148;27404;-75
2022/09/10 08:04:30;;;;;;;1.85;0.98;;;20.10;97.60;;;;;;938218;148;27364;-76
2022/09/10 08:06:57;;;;;;;1.00;0.90;;;20.20;97.00;;;;;;938717;148;27407;-75
2022/09/10 08:09:24;;;;;;;1.77;0.82;;;20.30;96.60;;;;;;937927;148;27422;-75
2022/09/10 08:11:50;;;;;;;0.62;0.62;;;20.30;96.20;;;;;;940768;148;27422;-75
2022/09/10 08:14:17;;;;;;;0.95;0.85;;;20.30;95.90;;;;;;938573;148;27434;-75
2022/09/10 08:16:43;;;;;;;1.20;0.98;;;20.30;95.60;;;;;;939966;148;27388;-75
2022/09/10 08:19:11;;;;;;;1.80;1.02;;;20.40;95.70;;;;;;939786;148;27389;-76
2022/09/10 08:21:36;;;;;;;1.77;1.10;;;20.30;95.80;;;;;;938356;148;27327;-75
2022/09/10 08:24:03;;;;;;;1.42;0.78;;;20.30;95.80;;;;;;941593;148;27380;-75
2022/09/10 08:26:32;;;;;;;1.52;0.98;;;20.30;95.90;;;;;;939202;148;27338;-75
2022/09/10 08:28:56;;;;;;;1.62;1.10;;;20.30;95.80;;;;;;940767;148;27364;-76
2022/09/10 08:31:23;;;;;;;1.07;0.90;;;20.30;96.20;;;;;;938298;148;27388;-76
2022/09/10 08:33:49;;;;;;;1.55;1.00;;;20.30;95.80;;;;;;937847;148;27380;-75
2022/09/10 08:36:17;;;;;;;2.30;1.10;;;20.40;96.00;;;;;;939345;148;27304;-76
2022/09/10 08:38:42;;;;;;;0.90;0.90;;;20.40;96.20;;;;;;941159;148;27450;-76
2022/09/10 08:41:27;;;;;;;3.70;0.90;;;20.50;96.30;;;;;;941133;146;27372;-76
2022/09/10 08:44:10;;;;;;;1.22;0.95;;;20.50;96.30;;;;;;938657;148;27363;-75
2022/09/10 08:46:45;;;;;;;1.67;1.10;;;20.60;96.60;;;;;;939055;148;27467;-76
2022/09/10 08:49:11;;;;;;;2.33;0.98;;;20.70;96.50;;;;;;934394;148;27451;-76
2022/09/10 08:51:50;;;;;;;1.25;0.88;;;20.80;96.60;;;;;;932919;148;27442;-75
2022/09/10 08:54:16;;;;;;;2.05;0.93;;;20.90;96.30;;;;;;934954;148;27319;-76
2022/09/10 08:56:43;;;;;;;2.27;1.15;;;21.10;96.20;;;;;;934925;149;27332;-75
2022/09/10 08:59:12;;;;;;;2.90;2.00;;;21.20;95.70;;;;;;933476;149;27471;-75
2022/09/10 09:01:39;;;;;;;2.12;1.17;;;21.20;95.10;;;;;;933276;148;27356;-75
2022/09/10 09:04:15;;;;;;;3.15;1.30;;;21.30;94.90;;;;;;932819;149;27320;-76
2022/09/10 09:06:44;;;;;;;1.12;0.90;;;21.40;94.40;;;;;;933069;149;27764;-76
2022/09/10 09:09:10;;;;;;;2.75;1.10;;;21.50;94.30;;;;;;932240;149;27408;-76
2022/09/10 09:12:02;;;;;;;1.20;1.10;;;21.50;94.10;;;;;;933112;149;27446;-75
2022/09/10 09:14:44;;;;;;;2.62;1.75;;;21.60;93.80;;;;;;933424;149;27393;-76
2022/09/10 09:17:24;;;;;;;2.65;1.32;;;21.70;93.40;;;;;;932696;149;27444;-76
2022/09/10 09:20:04;;;;;;;1.17;0.95;;;21.70;92.70;;;;;;933042;149;27302;-75
2022/09/10 09:22:48;;;;;;;1.10;1.00;;;21.70;92.20;;;;;;934072;149;27382;-75
2022/09/10 09:25:32;;;;;;;2.62;1.30;;;21.70;92.00;;;;;;933498;149;27478;-75
2022/09/10 09:27:59;;;;;;;0.88;0.88;;;21.70;91.80;;;;;;934183;149;27396;-75
2022/09/10 09:30:31;;;;;;;3.08;1.30;;;21.70;91.30;;;;;;934728;149;27345;-75
2022/09/10 09:32:58;;;;;;;2.42;1.47;;;21.60;91.30;;;;;;935655;148;27447;-75
2022/09/10 09:35:33;;;;;;;3.85;1.55;;;21.50;91.10;;;;;;932231;149;27352;-76
2022/09/10 09:38:22;;;;;;;1.70;0.98;;;21.50;91.00;;;;;;935365;149;27379;-75
2022/09/10 09:40:57;;;;;;;1.67;1.12;;;21.50;91.00;;;;;;931968;149;27464;-75
2022/09/10 09:43:23;;;;;;;2.35;1.30;;;21.50;91.20;;;;;;932998;149;27360;-75
2022/09/10 09:45:51;;;;;;;1.25;1.15;;;21.40;91.40;;;;;;932221;149;27381;-76
2022/09/10 09:48:16;;;;;;;1.20;1.10;;;21.40;91.60;;;;;;930778;149;27352;-76
2022/09/10 09:50:43;;;;;;;2.85;1.17;;;21.50;91.80;;;;;;938577;151;27436;-75
2022/09/10 09:53:09;;;;;;;1.40;1.22;;;21.50;92.00;;;;;;938614;151;27485;-76
2022/09/10 09:55:39;;;;;;;1.62;1.40;;;21.60;92.00;;;;;;939679;151;27446;-75
2022/09/10 09:58:25;;;;;;;3.80;2.30;;;21.70;92.00;;;;;;939526;147;27380;-75
2022/09/10 10:01:03;;;;;;;1.32;1.05;;;21.80;91.70;;;;;;939184;148;27312;-76
2022/09/10 10:03:35;;;;;;;2.60;1.07;;;22.00;91.50;;;;;;941484;151;27452;-76
2022/09/10 10:06:07;;;;;;;1.17;1.07;;;22.10;91.40;;;;;;938384;151;27362;-75
2022/09/10 10:08:42;;;;;;;3.10;1.57;;;22.20;91.10;;;;;;939639;151;27486;-75
2022/09/10 10:11:09;;;;;;;3.00;1.40;;;22.40;91.20;;;;;;940667;148;27392;-76
2022/09/10 10:13:36;;;;;;;2.85;1.35;;;22.60;90.90;;;;;;939065;148;27344;-75
2022/09/10 10:16:21;;;;;;;1.85;1.00;;;22.80;90.30;;;;;;939261;147;27489;-76
2022/09/10 10:18:47;;;;;;;2.27;1.07;;;22.90;89.90;;;;;;940550;148;27375;-76
2022/09/10 10:21:21;;;;;;;2.25;1.40;;;23.10;88.60;;;;;;939575;148;27387;-76
2022/09/10 10:23:46;;;;;;;3.37;1.20;;;23.30;88.90;;;;;;937876;151;27344;-76
2022/09/10 10:26:19;;;;;;;3.02;1.32;;;23.40;87.20;;;;;;939495;147;27378;-75
2022/09/10 10:28:46;;;;;;;1.90;1.10;;;23.50;84.90;;;;;;941548;148;27358;-76
2022/09/10 10:31:12;;;;;;;4.03;1.50;;;23.60;82.90;;;;;;938457;147;27713;-76
2022/09/10 10:33:39;;;;;;;1.98;1.30;;;23.60;81.40;;;;;;937236;151;27392;-75
2022/09/10 10:36:14;;;;;;;3.27;1.20;;;23.50;81.00;;;;;;940764;148;27305;-75
2022/09/10 10:38:41;;;;;;;1.27;0.88;;;23.50;79.60;;;;;;939926;150;27504;-76
2022/09/10 10:41:39;;;;;;;1.40;1.00;;;23.40;79.20;;;;;;940489;148;27392;-75
2022/09/10 10:44:14;;;;;;;2.02;1.20;;;23.30;78.70;;;;;;937794;150;27344;-76
2022/09/10 10:46:56;;;;;;;1.47;0.98;;;23.20;78.20;;;;;;938159;151;27356;-76
2022/09/10 10:49:41;;;;;;;2.20;1.10;;;23.20;78.60;;;;;;940159;147;27489;-75
2022/09/10 10:52:32;;;;;;;2.40;0.90;;;23.10;79.30;;;;;;934031;148;27724;-75
2022/09/10 10:55:08;;;;;;;1.32;1.05;;;23.00;80.50;;;;;;934281;148;27435;-75
2022/09/10 10:57:38;;;;;;;2.62;1.22;;;23.00;82.10;;;;;;933561;149;27384;-75
2022/09/10 11:00:13;;;;;;;1.90;0.93;;;23.00;83.20;;;;;;933800;148;27350;-75
2022/09/10 11:02:40;;;;;;;1.65;1.20;;;23.00;83.10;;;;;;934411;148;27342;-75
2022/09/10 11:05:19;;;;;;;1.70;0.93;;;23.10;81.70;;;;;;933268;149;27316;-75
2022/09/10 11:07:46;;;;;;;1.00;0.90;;;23.10;81.50;;;;;;933321;149;27334;-75
2022/09/10 11:10:21;;;;;;;2.77;1.55;;;23.00;81.80;;;;;;933882;148;27369;-75
2022/09/10 11:13:08;;;;;;;3.80;1.50;;;23.00;82.00;;;;;;934647;148;27389;-75
2022/09/10 11:15:40;;;;;;;2.90;1.10;;;23.10;81.70;;;;;;936817;148;27413;-75
2022/09/10 11:18:12;;;;;;;1.70;1.20;;;23.10;81.60;;;;;;933893;148;27389;-75
2022/09/10 11:20:42;;;;;;;1.62;1.07;;;23.20;82.20;;;;;;934701;149;27362;-75
2022/09/10 11:23:28;;;;;;;2.12;1.17;;;23.30;82.60;;;;;;933397;149;27452;-75
2022/09/10 11:26:02;;;;;;;2.42;1.25;;;23.40;82.80;;;;;;934425;149;27370;-75
2022/09/10 11:28:31;;;;;;;1.37;0.82;;;23.50;82.30;;;;;;929090;148;27419;-76
2022/09/10 11:30:58;;;;;;;1.25;1.15;;;23.70;80.90;;;;;;928519;148;27309;-75
2022/09/10 11:33:27;;;;;;;2.00;1.00;;;23.70;79.50;;;;;;933251;148;27353;-75
2022/09/10 11:35:58;;;;;;;1.37;0.90;;;23.60;79.30;;;;;;932853;149;27370;-75
2022/09/10 11:38:32;;;;;;;1.37;1.00;;;23.60;79.80;;;;;;934319;148;27385;-75
2022/09/10 11:41:22;;;;;;;1.30;1.00;;;23.60;80.20;;;;;;932534;149;27448;-75
2022/09/10 11:43:52;;;;;;;1.22;0.98;;;23.50;80.90;;;;;;935536;148;27786;-75
2022/09/10 11:46:37;;;;;;;1.50;0.70;;;23.60;81.40;;;;;;933442;148;27495;-76
2022/09/10 11:49:14;;;;;;;1.30;0.80;;;23.60;80.80;;;;;;934177;149;27375;-76
2022/09/10 11:51:40;;;;;;;1.75;0.90;;;23.70;79.90;;;;;;938414;148;27371;-76
2022/09/10 11:54:06;;;;;;;1.22;0.90;;;23.70;79.40;;;;;;939743;151;27367;-76
2022/09/10 11:56:51;;;;;;;1.37;0.90;;;23.70;78.30;;;;;;940383;150;27903;-76
2022/09/10 11:59:33;;;;;;;1.25;1.05;;;23.70;77.80;;;;;;939770;148;27784;-76
2022/09/10 12:02:27;;;;;;;1.22;0.70;;;23.70;78.40;;;;;;936816;148;27303;-76
2022/09/10 12:05:15;;;;;;;1.17;0.62;;;23.70;79.20;;;;;;939285;151;27375;-76
2022/09/10 12:07:41;;;;;;;2.50;0.80;;;23.80;79.90;;;;;;939690;151;27341;-76
2022/09/10 12:10:30;;;;;;;1.95;0.95;;;23.90;79.90;;;;;;941092;151;27297;-76
2022/09/10 12:12:55;;;;;;;1.57;0.85;;;24.00;79.30;;;;;;940084;151;27371;-76
2022/09/10 12:15:22;;;;;;;3.77;1.00;;;24.20;78.50;;;;;;940440;151;27486;-76
2022/09/10 12:17:48;;;;;;;1.37;0.85;;;24.30;78.20;;;;;;940729;151;27778;-76
2022/09/10 12:20:15;;;;;;;2.12;1.00;;;24.40;77.50;;;;;;938105;149;27320;-76
2022/09/10 12:22:42;;;;;;;0.93;0.60;;;24.50;77.20;;;;;;941277;151;27329;-76
2022/09/10 12:25:08;;;;;;;0.88;0.55;;;24.70;76.50;;;;;;937822;151;27384;-76
2022/09/10 12:27:50;;;;;;;1.10;0.72;;;24.70;75.70;;;;;;936759;150;27381;-76
2022/09/10 12:30:34;;;;;;;1.27;0.70;;;24.80;75.00;;;;;;939676;151;27919;-76
2022/09/10 12:33:00;;;;;;;0.95;0.70;;;24.90;74.60;;;;;;938197;151;27453;-77
2022/09/10 12:35:36;;;;;;;1.87;0.82;;;24.90;74.40;;;;;;940292;151;27941;-77
2022/09/10 12:38:39;;;;;;;1.90;0.70;;;25.00;73.70;;;;;;939224;151;27462;-76
2022/09/10 12:41:08;;;;;;;1.75;0.70;;;25.00;73.20;;;;;;940417;151;27407;-76
2022/09/10 12:43:40;;;;;;;1.30;0.80;;;25.10;72.90;;;;;;939785;151;27320;-76
2022/09/10 12:46:13;;;;;;;1.00;0.90;;;25.10;72.70;;;;;;937993;151;27338;-76
2022/09/10 12:48:45;;;;;;;1.47;0.90;;;25.20;72.80;;;;;;938573;150;27465;-76
2022/09/10 12:51:22;;;;;;;1.45;0.70;;;25.20;72.50;;;;;;936156;149;27388;-76
2022/09/10 12:53:53;;;;;;;1.12;0.72;;;25.20;71.90;;;;;;934035;149;27418;-77
2022/09/10 12:56:36;;;;;;;1.02;0.70;;;25.30;71.30;;;;;;935886;149;27401;-76
2022/09/10 12:59:01;;;;;;;4.37;0.80;;;25.30;70.70;;;;;;924769;149;27375;-77
2022/09/10 13:01:39;;;;;;;0.47;0.47;;;25.30;70.60;;;;;;930928;148;27321;-76